sensor_id;sensor_type;location;lat;lon;timestamp;temperature;humidity
60242;SHT30;46103;52.076;113.488;2022-12-18T00:00:29;-18.56;59.75
60242;SHT30;46103;52.076;113.488;2022-12-18T00:03:34;-18.53;60.14
60242;SHT30;46103;52.076;113.488;2022-12-18T00:06:41;-18.49;60.04
60242;SHT30;46103;52.076;113.488;2022-12-18T00:09:46;-18.48;59.98
60242;SHT30;46103;52.076;113.488;2022-12-18T00:12:50;-18.44;59.75
60242;SHT30;46103;52.076;113.488;2022-12-18T00:15:54;-18.44;60.01
60242;SHT30;46103;52.076;113.488;2022-12-18T00:18:59;-18.44;60.07
60242;SHT30;46103;52.076;113.488;2022-12-18T00:22:03;-18.48;59.69
60242;SHT30;46103;52.076;113.488;2022-12-18T00:25:07;-18.53;59.88
60242;SHT30;46103;52.076;113.488;2022-12-18T00:28:11;-18.57;60.22
60242;SHT30;46103;52.076;113.488;2022-12-18T00:31:17;-18.55;60.33
60242;SHT30;46103;52.076;113.488;2022-12-18T00:34:21;-18.46;59.82
60242;SHT30;46103;52.076;113.488;2022-12-18T00:37:26;-18.39;59.52
60242;SHT30;46103;52.076;113.488;2022-12-18T00:40:31;-18.31;59.11
60242;SHT30;46103;52.076;113.488;2022-12-18T00:43:38;-18.21;58.89
60242;SHT30;46103;52.076;113.488;2022-12-18T00:46:44;-18.17;58.64
60242;SHT30;46103;52.076;113.488;2022-12-18T00:49:49;-18.15;58.50
60242;SHT30;46103;52.076;113.488;2022-12-18T00:52:55;-18.10;58.29
60242;SHT30;46103;52.076;113.488;2022-12-18T00:56:05;-18.04;57.95
60242;SHT30;46103;52.076;113.488;2022-12-18T00:59:08;-18.00;57.95
60242;SHT30;46103;52.076;113.488;2022-12-18T01:02:13;-17.98;57.49
60242;SHT30;46103;52.076;113.488;2022-12-18T01:05:17;-17.98;57.42
60242;SHT30;46103;52.076;113.488;2022-12-18T01:08:20;-17.96;56.95
60242;SHT30;46103;52.076;113.488;2022-12-18T01:11:25;-17.93;56.80
60242;SHT30;46103;52.076;113.488;2022-12-18T01:14:30;-17.89;56.80
60242;SHT30;46103;52.076;113.488;2022-12-18T01:17:35;-17.87;57.05
60242;SHT30;46103;52.076;113.488;2022-12-18T01:20:38;-17.91;57.37
60242;SHT30;46103;52.076;113.488;2022-12-18T01:23:42;-17.97;57.33
60242;SHT30;46103;52.076;113.488;2022-12-18T01:26:48;-18.01;56.90
60242;SHT30;46103;52.076;113.488;2022-12-18T01:29:53;-18.07;56.88
60242;SHT30;46103;52.076;113.488;2022-12-18T01:32:56;-18.01;56.78
60242;SHT30;46103;52.076;113.488;2022-12-18T01:36:01;-18.03;57.24
60242;SHT30;46103;52.076;113.488;2022-12-18T01:39:11;-17.93;56.98
60242;SHT30;46103;52.076;113.488;2022-12-18T01:42:16;-17.91;56.67
60242;SHT30;46103;52.076;113.488;2022-12-18T01:45:26;-17.89;56.75
60242;SHT30;46103;52.076;113.488;2022-12-18T01:48:31;-17.82;56.71
60242;SHT30;46103;52.076;113.488;2022-12-18T01:51:34;-17.70;56.32
60242;SHT30;46103;52.076;113.488;2022-12-18T01:54:39;-17.65;55.85
60242;SHT30;46103;52.076;113.488;2022-12-18T01:57:42;-17.52;55.49
60242;SHT30;46103;52.076;113.488;2022-12-18T02:00:46;-17.41;55.35
60242;SHT30;46103;52.076;113.488;2022-12-18T02:03:49;-17.31;55.67
60242;SHT30;46103;52.076;113.488;2022-12-18T02:10:20;-17.11;55.01
60242;SHT30;46103;52.076;113.488;2022-12-18T02:13:32;-17.02;54.04
60242;SHT30;46103;52.076;113.488;2022-12-18T02:17:00;-16.99;53.84
60242;SHT30;46103;52.076;113.488;2022-12-18T02:20:44;-16.99;53.18
60242;SHT30;46103;52.076;113.488;2022-12-18T02:27:03;-17.39;52.84
60242;SHT30;46103;52.076;113.488;2022-12-18T02:30:08;-17.54;53.32
60242;SHT30;46103;52.076;113.488;2022-12-18T02:33:13;-17.62;54.05
60242;SHT30;46103;52.076;113.488;2022-12-18T02:36:18;-17.44;53.99
60242;SHT30;46103;52.076;113.488;2022-12-18T02:39:29;-17.28;54.13
60242;SHT30;46103;52.076;113.488;2022-12-18T02:42:37;-17.06;53.29
60242;SHT30;46103;52.076;113.488;2022-12-18T02:45:52;-16.90;53.11
60242;SHT30;46103;52.076;113.488;2022-12-18T02:53:00;-16.72;52.76
60242;SHT30;46103;52.076;113.488;2022-12-18T02:56:21;-16.90;52.22
60242;SHT30;46103;52.076;113.488;2022-12-18T02:59:54;-16.83;52.68
60242;SHT30;46103;52.076;113.488;2022-12-18T03:03:16;-16.72;52.60
60242;SHT30;46103;52.076;113.488;2022-12-18T03:06:32;-16.62;52.71
60242;SHT30;46103;52.076;113.488;2022-12-18T03:09:39;-16.46;52.67
60242;SHT30;46103;52.076;113.488;2022-12-18T03:12:50;-16.49;51.77
60242;SHT30;46103;52.076;113.488;2022-12-18T03:15:57;-16.44;52.95
60242;SHT30;46103;52.076;113.488;2022-12-18T03:19:08;-16.18;52.81
60242;SHT30;46103;52.076;113.488;2022-12-18T03:22:16;-15.96;52.21
60242;SHT30;46103;52.076;113.488;2022-12-18T03:25:26;-15.74;52.09
60242;SHT30;46103;52.076;113.488;2022-12-18T03:28:31;-15.53;51.35
60242;SHT30;46103;52.076;113.488;2022-12-18T03:31:40;-15.36;50.88
60242;SHT30;46103;52.076;113.488;2022-12-18T03:34:48;-15.23;50.42
60242;SHT30;46103;52.076;113.488;2022-12-18T03:37:56;-15.12;49.73
60242;SHT30;46103;52.076;113.488;2022-12-18T03:41:20;-15.07;50.15
60242;SHT30;46103;52.076;113.488;2022-12-18T03:47:53;-14.88;49.74
60242;SHT30;46103;52.076;113.488;2022-12-18T03:51:32;-14.79;49.89
60242;SHT30;46103;52.076;113.488;2022-12-18T03:54:41;-14.75;49.12
60242;SHT30;46103;52.076;113.488;2022-12-18T03:57:49;-14.74;48.86
60242;SHT30;46103;52.076;113.488;2022-12-18T04:00:56;-14.74;48.92
60242;SHT30;46103;52.076;113.488;2022-12-18T04:04:04;-14.71;49.45
60242;SHT30;46103;52.076;113.488;2022-12-18T04:07:13;-14.74;49.79
60242;SHT30;46103;52.076;113.488;2022-12-18T04:10:19;-14.74;50.04
60242;SHT30;46103;52.076;113.488;2022-12-18T04:13:31;-14.65;50.27
60242;SHT30;46103;52.076;113.488;2022-12-18T04:16:38;-14.60;50.04
60242;SHT30;46103;52.076;113.488;2022-12-18T04:19:45;-14.61;49.83
60242;SHT30;46103;52.076;113.488;2022-12-18T04:22:49;-14.60;49.95
60242;SHT30;46103;52.076;113.488;2022-12-18T04:25:54;-14.65;50.00
60242;SHT30;46103;52.076;113.488;2022-12-18T04:29:14;-14.65;50.41
60242;SHT30;46103;52.076;113.488;2022-12-18T04:32:18;-14.57;50.54
60242;SHT30;46103;52.076;113.488;2022-12-18T04:35:22;-14.50;50.17
60242;SHT30;46103;52.076;113.488;2022-12-18T04:38:26;-14.46;50.23
60242;SHT30;46103;52.076;113.488;2022-12-18T04:41:37;-14.43;50.31
60242;SHT30;46103;52.076;113.488;2022-12-18T04:44:41;-14.28;49.98
60242;SHT30;46103;52.076;113.488;2022-12-18T04:47:44;-14.18;49.79
60242;SHT30;46103;52.076;113.488;2022-12-18T04:50:47;-14.10;49.62
60242;SHT30;46103;52.076;113.488;2022-12-18T04:53:51;-14.03;49.36
60242;SHT30;46103;52.076;113.488;2022-12-18T04:56:55;-14.20;48.81
60242;SHT30;46103;52.076;113.488;2022-12-18T04:59:58;-14.34;48.94
60242;SHT30;46103;52.076;113.488;2022-12-18T05:03:02;-14.39;48.92
60242;SHT30;46103;52.076;113.488;2022-12-18T05:06:06;-14.43;49.29
60242;SHT30;46103;52.076;113.488;2022-12-18T05:09:09;-14.32;49.38
60242;SHT30;46103;52.076;113.488;2022-12-18T05:12:12;-14.41;49.17
60242;SHT30;46103;52.076;113.488;2022-12-18T05:15:15;-14.43;49.54
60242;SHT30;46103;52.076;113.488;2022-12-18T05:18:20;-14.40;49.73
60242;SHT30;46103;52.076;113.488;2022-12-18T05:21:24;-14.32;49.94
60242;SHT30;46103;52.076;113.488;2022-12-18T05:24:27;-14.51;49.53
60242;SHT30;46103;52.076;113.488;2022-12-18T05:27:32;-14.64;50.39
60242;SHT30;46103;52.076;113.488;2022-12-18T05:30:36;-14.63;50.79
60242;SHT30;46103;52.076;113.488;2022-12-18T05:33:39;-14.54;50.81
60242;SHT30;46103;52.076;113.488;2022-12-18T05:36:44;-14.53;50.40
60242;SHT30;46103;52.076;113.488;2022-12-18T05:39:47;-14.39;51.11
60242;SHT30;46103;52.076;113.488;2022-12-18T05:42:51;-14.18;50.68
60242;SHT30;46103;52.076;113.488;2022-12-18T05:45:55;-13.99;50.42
60242;SHT30;46103;52.076;113.488;2022-12-18T05:49:00;-14.01;48.95
60242;SHT30;46103;52.076;113.488;2022-12-18T05:52:06;-14.05;49.88
60242;SHT30;46103;52.076;113.488;2022-12-18T05:55:09;-13.85;49.53
60242;SHT30;46103;52.076;113.488;2022-12-18T05:58:13;-13.74;49.19
60242;SHT30;46103;52.076;113.488;2022-12-18T06:01:25;-13.68;48.78
60242;SHT30;46103;52.076;113.488;2022-12-18T06:04:29;-13.75;48.58
60242;SHT30;46103;52.076;113.488;2022-12-18T06:07:32;-13.71;48.83
60242;SHT30;46103;52.076;113.488;2022-12-18T06:10:35;-13.70;48.63
60242;SHT30;46103;52.076;113.488;2022-12-18T06:13:39;-13.70;48.83
60242;SHT30;46103;52.076;113.488;2022-12-18T06:16:43;-13.70;48.86
60242;SHT30;46103;52.076;113.488;2022-12-18T06:19:46;-13.70;48.73
60242;SHT30;46103;52.076;113.488;2022-12-18T06:22:50;-13.78;49.11
60242;SHT30;46103;52.076;113.488;2022-12-18T06:25:54;-13.81;49.12
60242;SHT30;46103;52.076;113.488;2022-12-18T06:28:59;-13.75;48.76
60242;SHT30;46103;52.076;113.488;2022-12-18T06:32:03;-13.79;48.84
60242;SHT30;46103;52.076;113.488;2022-12-18T06:35:08;-13.75;49.11
60242;SHT30;46103;52.076;113.488;2022-12-18T06:38:13;-13.77;49.04
60242;SHT30;46103;52.076;113.488;2022-12-18T06:41:19;-13.72;49.14
60242;SHT30;46103;52.076;113.488;2022-12-18T06:44:23;-13.79;49.12
60242;SHT30;46103;52.076;113.488;2022-12-18T06:47:26;-13.72;49.63
60242;SHT30;46103;52.076;113.488;2022-12-18T06:50:29;-13.74;49.32
60242;SHT30;46103;52.076;113.488;2022-12-18T06:53:33;-13.67;49.35
60242;SHT30;46103;52.076;113.488;2022-12-18T06:56:36;-13.68;49.23
60242;SHT30;46103;52.076;113.488;2022-12-18T06:59:40;-13.63;49.06
60242;SHT30;46103;52.076;113.488;2022-12-18T07:02:43;-13.61;48.78
60242;SHT30;46103;52.076;113.488;2022-12-18T07:05:47;-13.60;48.80
60242;SHT30;46103;52.076;113.488;2022-12-18T07:08:51;-13.60;49.23
60242;SHT30;46103;52.076;113.488;2022-12-18T07:11:55;-13.68;48.99
60242;SHT30;46103;52.076;113.488;2022-12-18T07:14:59;-13.77;49.37
60242;SHT30;46103;52.076;113.488;2022-12-18T07:18:02;-13.83;49.55
60242;SHT30;46103;52.076;113.488;2022-12-18T07:21:07;-13.93;49.54
60242;SHT30;46103;52.076;113.488;2022-12-18T07:24:11;-14.10;49.97
60242;SHT30;46103;52.076;113.488;2022-12-18T07:27:15;-14.30;50.66
60242;SHT30;46103;52.076;113.488;2022-12-18T07:30:18;-14.40;50.74
60242;SHT30;46103;52.076;113.488;2022-12-18T07:33:22;-14.40;50.98
60242;SHT30;46103;52.076;113.488;2022-12-18T07:36:26;-14.44;51.26
60242;SHT30;46103;52.076;113.488;2022-12-18T07:39:29;-14.60;51.30
60242;SHT30;46103;52.076;113.488;2022-12-18T07:42:33;-14.71;51.96
60242;SHT30;46103;52.076;113.488;2022-12-18T07:45:37;-14.75;52.53
60242;SHT30;46103;52.076;113.488;2022-12-18T07:48:42;-14.91;52.86
60242;SHT30;46103;52.076;113.488;2022-12-18T07:51:50;-15.02;53.14
60242;SHT30;46103;52.076;113.488;2022-12-18T07:54:53;-15.19;53.53
60242;SHT30;46103;52.076;113.488;2022-12-18T07:57:59;-15.28;54.08
60242;SHT30;46103;52.076;113.488;2022-12-18T08:01:07;-15.47;54.57
60242;SHT30;46103;52.076;113.488;2022-12-18T08:04:13;-15.64;55.14
60242;SHT30;46103;52.076;113.488;2022-12-18T08:07:16;-15.71;55.61
60242;SHT30;46103;52.076;113.488;2022-12-18T08:10:20;-15.79;56.08
60242;SHT30;46103;52.076;113.488;2022-12-18T08:13:24;-15.86;56.55
60242;SHT30;46103;52.076;113.488;2022-12-18T08:16:27;-15.95;56.83
60242;SHT30;46103;52.076;113.488;2022-12-18T08:19:31;-16.03;57.11
60242;SHT30;46103;52.076;113.488;2022-12-18T08:22:37;-16.06;57.11
60242;SHT30;46103;52.076;113.488;2022-12-18T08:25:40;-16.14;57.26
60242;SHT30;46103;52.076;113.488;2022-12-18T08:28:43;-16.20;57.14
60242;SHT30;46103;52.076;113.488;2022-12-18T08:31:47;-16.33;57.50
60242;SHT30;46103;52.076;113.488;2022-12-18T08:34:51;-16.42;57.77
60242;SHT30;46103;52.076;113.488;2022-12-18T08:37:55;-16.52;58.10
60242;SHT30;46103;52.076;113.488;2022-12-18T08:41:10;-16.61;58.46
60242;SHT30;46103;52.076;113.488;2022-12-18T08:44:14;-16.79;59.04
60242;SHT30;46103;52.076;113.488;2022-12-18T08:47:36;-16.78;59.35
60242;SHT30;46103;52.076;113.488;2022-12-18T08:50:40;-16.71;59.43
60242;SHT30;46103;52.076;113.488;2022-12-18T08:53:44;-16.71;59.60
60242;SHT30;46103;52.076;113.488;2022-12-18T08:56:47;-16.75;59.28
60242;SHT30;46103;52.076;113.488;2022-12-18T08:59:50;-16.73;59.39
60242;SHT30;46103;52.076;113.488;2022-12-18T09:02:53;-16.86;59.30
60242;SHT30;46103;52.076;113.488;2022-12-18T09:05:57;-16.86;58.35
60242;SHT30;46103;52.076;113.488;2022-12-18T09:09:00;-16.93;58.67
60242;SHT30;46103;52.076;113.488;2022-12-18T09:12:04;-17.00;59.23
60242;SHT30;46103;52.076;113.488;2022-12-18T09:15:07;-17.10;59.84
60242;SHT30;46103;52.076;113.488;2022-12-18T09:18:12;-17.10;59.72
60242;SHT30;46103;52.076;113.488;2022-12-18T09:21:19;-17.13;59.55
60242;SHT30;46103;52.076;113.488;2022-12-18T09:24:22;-17.13;60.23
60242;SHT30;46103;52.076;113.488;2022-12-18T09:27:26;-17.14;60.08
60242;SHT30;46103;52.076;113.488;2022-12-18T09:30:29;-17.04;62.42
60242;SHT30;46103;52.076;113.488;2022-12-18T09:33:37;-17.02;60.98
60242;SHT30;46103;52.076;113.488;2022-12-18T09:36:40;-17.09;60.50
60242;SHT30;46103;52.076;113.488;2022-12-18T09:39:45;-17.14;59.73
60242;SHT30;46103;52.076;113.488;2022-12-18T09:42:54;-17.20;60.47
60242;SHT30;46103;52.076;113.488;2022-12-18T09:46:02;-17.30;62.21
60242;SHT30;46103;52.076;113.488;2022-12-18T09:49:12;-17.35;62.51
60242;SHT30;46103;52.076;113.488;2022-12-18T09:52:33;-17.38;62.40
60242;SHT30;46103;52.076;113.488;2022-12-18T09:55:40;-17.39;61.64
60242;SHT30;46103;52.076;113.488;2022-12-18T09:58:58;-17.55;61.94
60242;SHT30;46103;52.076;113.488;2022-12-18T10:02:20;-17.59;62.10
60242;SHT30;46103;52.076;113.488;2022-12-18T10:05:53;-17.69;62.25
60242;SHT30;46103;52.076;113.488;2022-12-18T10:09:05;-17.75;62.68
60242;SHT30;46103;52.076;113.488;2022-12-18T10:12:21;-17.67;62.64
60242;SHT30;46103;52.076;113.488;2022-12-18T10:15:41;-17.63;62.56
60242;SHT30;46103;52.076;113.488;2022-12-18T10:19:21;-17.58;62.18
60242;SHT30;46103;52.076;113.488;2022-12-18T10:28:48;-17.75;61.86
60242;SHT30;46103;52.076;113.488;2022-12-18T10:31:54;-17.75;61.28
60242;SHT30;46103;52.076;113.488;2022-12-18T10:34:58;-17.72;60.91
60242;SHT30;46103;52.076;113.488;2022-12-18T10:44:27;-17.62;61.59
60242;SHT30;46103;52.076;113.488;2022-12-18T10:47:31;-17.59;61.30
60242;SHT30;46103;52.076;113.488;2022-12-18T10:50:37;-17.62;61.09
60242;SHT30;46103;52.076;113.488;2022-12-18T10:54:04;-17.58;60.74
60242;SHT30;46103;52.076;113.488;2022-12-18T10:57:17;-17.63;60.85
60242;SHT30;46103;52.076;113.488;2022-12-18T11:00:30;-17.62;60.99
60242;SHT30;46103;52.076;113.488;2022-12-18T11:03:41;-17.55;60.48
60242;SHT30;46103;52.076;113.488;2022-12-18T11:07:04;-17.61;60.60
60242;SHT30;46103;52.076;113.488;2022-12-18T11:10:18;-17.62;60.78
60242;SHT30;46103;52.076;113.488;2022-12-18T11:13:24;-17.59;60.40
60242;SHT30;46103;52.076;113.488;2022-12-18T11:16:36;-17.66;60.98
60242;SHT30;46103;52.076;113.488;2022-12-18T11:19:40;-17.76;61.86
60242;SHT30;46103;52.076;113.488;2022-12-18T11:22:58;-17.69;61.36
60242;SHT30;46103;52.076;113.488;2022-12-18T11:26:04;-17.69;61.67
60242;SHT30;46103;52.076;113.488;2022-12-18T11:29:16;-17.72;61.69
60242;SHT30;46103;52.076;113.488;2022-12-18T11:35:53;-17.83;62.16
60242;SHT30;46103;52.076;113.488;2022-12-18T11:39:12;-17.97;60.44
60242;SHT30;46103;52.076;113.488;2022-12-18T11:43:17;-18.17;60.50
60242;SHT30;46103;52.076;113.488;2022-12-18T11:46:15;-18.35;58.93
60242;SHT30;46103;52.076;113.488;2022-12-18T11:49:33;-18.45;59.72
60242;SHT30;46103;52.076;113.488;2022-12-18T11:52:40;-18.48;59.69
60242;SHT30;46103;52.076;113.488;2022-12-18T11:55:53;-18.57;59.56
60242;SHT30;46103;52.076;113.488;2022-12-18T12:09:39;-19.12;63.86
60242;SHT30;46103;52.076;113.488;2022-12-18T12:16:46;-19.19;64.58
60242;SHT30;46103;52.076;113.488;2022-12-18T12:20:31;-19.19;64.55
60242;SHT30;46103;52.076;113.488;2022-12-18T12:34:55;-19.48;66.88
60242;SHT30;46103;52.076;113.488;2022-12-18T12:38:12;-19.60;66.77
60242;SHT30;46103;52.076;113.488;2022-12-18T12:41:21;-19.53;65.96
60242;SHT30;46103;52.076;113.488;2022-12-18T12:44:53;-19.62;66.06
60242;SHT30;46103;52.076;113.488;2022-12-18T12:47:59;-19.65;66.65
60242;SHT30;46103;52.076;113.488;2022-12-18T12:54:28;-19.60;65.41
60242;SHT30;46103;52.076;113.488;2022-12-18T12:57:36;-19.70;65.92
60242;SHT30;46103;52.076;113.488;2022-12-18T13:00:59;-19.70;65.24
60242;SHT30;46103;52.076;113.488;2022-12-18T13:04:21;-19.66;66.41
60242;SHT30;46103;52.076;113.488;2022-12-18T13:07:37;-19.74;66.94
60242;SHT30;46103;52.076;113.488;2022-12-18T13:10:44;-19.69;66.29
60242;SHT30;46103;52.076;113.488;2022-12-18T13:17:26;-19.63;66.07
60242;SHT30;46103;52.076;113.488;2022-12-18T13:20:37;-19.63;66.05
60242;SHT30;46103;52.076;113.488;2022-12-18T13:23:41;-19.67;66.51
60242;SHT30;46103;52.076;113.488;2022-12-18T13:26:45;-19.73;65.34
60242;SHT30;46103;52.076;113.488;2022-12-18T13:29:49;-19.69;63.15
60242;SHT30;46103;52.076;113.488;2022-12-18T13:36:27;-19.74;62.40
60242;SHT30;46103;52.076;113.488;2022-12-18T13:39:33;-19.76;62.21
60242;SHT30;46103;52.076;113.488;2022-12-18T13:42:39;-19.76;62.13
60242;SHT30;46103;52.076;113.488;2022-12-18T13:46:04;-19.74;61.23
60242;SHT30;46103;52.076;113.488;2022-12-18T13:52:22;-19.71;59.79
60242;SHT30;46103;52.076;113.488;2022-12-18T13:55:26;-19.69;59.57
60242;SHT30;46103;52.076;113.488;2022-12-18T13:58:30;-19.70;59.61
60242;SHT30;46103;52.076;113.488;2022-12-18T14:01:34;-19.74;59.70
60242;SHT30;46103;52.076;113.488;2022-12-18T14:04:40;-19.63;59.42
60242;SHT30;46103;52.076;113.488;2022-12-18T14:07:49;-19.53;58.71
60242;SHT30;46103;52.076;113.488;2022-12-18T14:11:01;-19.45;58.60
60242;SHT30;46103;52.076;113.488;2022-12-18T14:14:16;-19.39;57.69
60242;SHT30;46103;52.076;113.488;2022-12-18T14:17:26;-19.31;57.03
60242;SHT30;46103;52.076;113.488;2022-12-18T14:20:45;-19.28;56.88
60242;SHT30;46103;52.076;113.488;2022-12-18T14:24:20;-19.28;57.26
60242;SHT30;46103;52.076;113.488;2022-12-18T14:27:29;-19.28;56.24
60242;SHT30;46103;52.076;113.488;2022-12-18T14:30:45;-19.42;55.71
60242;SHT30;46103;52.076;113.488;2022-12-18T14:33:54;-19.43;55.62
60242;SHT30;46103;52.076;113.488;2022-12-18T14:37:03;-19.42;56.31
60242;SHT30;46103;52.076;113.488;2022-12-18T14:40:14;-19.40;56.66
60242;SHT30;46103;52.076;113.488;2022-12-18T14:43:18;-19.40;56.36
60242;SHT30;46103;52.076;113.488;2022-12-18T14:46:37;-19.38;55.91
60242;SHT30;46103;52.076;113.488;2022-12-18T14:49:47;-19.38;55.82
60242;SHT30;46103;52.076;113.488;2022-12-18T14:53:00;-19.36;55.74
60242;SHT30;46103;52.076;113.488;2022-12-18T14:56:22;-19.29;55.63
60242;SHT30;46103;52.076;113.488;2022-12-18T14:59:35;-19.21;56.40
60242;SHT30;46103;52.076;113.488;2022-12-18T15:02:50;-19.16;55.28
60242;SHT30;46103;52.076;113.488;2022-12-18T15:06:38;-19.21;54.96
60242;SHT30;46103;52.076;113.488;2022-12-18T15:13:22;-19.38;55.42
60242;SHT30;46103;52.076;113.488;2022-12-18T15:16:33;-19.35;56.34
60242;SHT30;46103;52.076;113.488;2022-12-18T15:19:50;-19.31;56.11
60242;SHT30;46103;52.076;113.488;2022-12-18T15:23:01;-19.21;56.20
60242;SHT30;46103;52.076;113.488;2022-12-18T15:26:15;-19.19;55.99
60242;SHT30;46103;52.076;113.488;2022-12-18T15:29:23;-19.29;55.94
60242;SHT30;46103;52.076;113.488;2022-12-18T15:32:39;-19.49;56.48
60242;SHT30;46103;52.076;113.488;2022-12-18T15:36:01;-19.52;57.04
60242;SHT30;46103;52.076;113.488;2022-12-18T15:39:13;-19.50;57.29
60242;SHT30;46103;52.076;113.488;2022-12-18T15:42:19;-19.67;57.73
60242;SHT30;46103;52.076;113.488;2022-12-18T15:45:51;-19.66;58.07
60242;SHT30;46103;52.076;113.488;2022-12-18T15:49:02;-19.65;57.70
60242;SHT30;46103;52.076;113.488;2022-12-18T15:52:13;-19.62;57.52
60242;SHT30;46103;52.076;113.488;2022-12-18T15:55:22;-19.65;57.61
60242;SHT30;46103;52.076;113.488;2022-12-18T15:58:45;-19.70;57.61
60242;SHT30;46103;52.076;113.488;2022-12-18T16:01:51;-19.77;57.83
60242;SHT30;46103;52.076;113.488;2022-12-18T16:04:59;-19.86;58.22
60242;SHT30;46103;52.076;113.488;2022-12-18T16:08:03;-19.93;58.41
60242;SHT30;46103;52.076;113.488;2022-12-18T16:11:23;-19.94;58.54
60242;SHT30;46103;52.076;113.488;2022-12-18T16:14:41;-19.98;57.91
60242;SHT30;46103;52.076;113.488;2022-12-18T16:17:46;-20.02;57.67
60242;SHT30;46103;52.076;113.488;2022-12-18T16:20:51;-20.05;57.43
60242;SHT30;46103;52.076;113.488;2022-12-18T16:23:54;-20.08;57.85
60242;SHT30;46103;52.076;113.488;2022-12-18T16:27:00;-20.08;57.98
60242;SHT30;46103;52.076;113.488;2022-12-18T16:30:11;-20.15;58.00
60242;SHT30;46103;52.076;113.488;2022-12-18T16:33:20;-20.19;58.15
60242;SHT30;46103;52.076;113.488;2022-12-18T16:36:25;-20.29;57.55
60242;SHT30;46103;52.076;113.488;2022-12-18T16:39:29;-20.35;57.17
60242;SHT30;46103;52.076;113.488;2022-12-18T16:42:39;-20.47;56.68
60242;SHT30;46103;52.076;113.488;2022-12-18T16:45:45;-20.52;56.85
60242;SHT30;46103;52.076;113.488;2022-12-18T16:48:52;-20.60;56.53
60242;SHT30;46103;52.076;113.488;2022-12-18T16:51:58;-20.68;56.42
60242;SHT30;46103;52.076;113.488;2022-12-18T16:55:04;-20.77;56.55
60242;SHT30;46103;52.076;113.488;2022-12-18T16:58:08;-20.84;56.79
60242;SHT30;46103;52.076;113.488;2022-12-18T17:01:12;-20.96;57.70
60242;SHT30;46103;52.076;113.488;2022-12-18T17:04:16;-21.02;57.69
60242;SHT30;46103;52.076;113.488;2022-12-18T17:07:19;-21.26;56.20
60242;SHT30;46103;52.076;113.488;2022-12-18T17:10:25;-21.61;57.32
60242;SHT30;46103;52.076;113.488;2022-12-18T17:13:31;-21.61;58.79
60242;SHT30;46103;52.076;113.488;2022-12-18T17:16:38;-21.63;57.90
60242;SHT30;46103;52.076;113.488;2022-12-18T17:19:43;-21.64;58.56
60242;SHT30;46103;52.076;113.488;2022-12-18T17:22:47;-21.63;58.25
60242;SHT30;46103;52.076;113.488;2022-12-18T17:25:56;-21.60;58.33
60242;SHT30;46103;52.076;113.488;2022-12-18T17:29:02;-21.58;58.04
60242;SHT30;46103;52.076;113.488;2022-12-18T17:32:07;-21.60;58.09
60242;SHT30;46103;52.076;113.488;2022-12-18T17:35:12;-21.53;59.09
60242;SHT30;46103;52.076;113.488;2022-12-18T17:38:16;-21.50;60.17
60242;SHT30;46103;52.076;113.488;2022-12-18T17:41:20;-21.49;58.07
60242;SHT30;46103;52.076;113.488;2022-12-18T17:44:24;-21.49;59.23
60242;SHT30;46103;52.076;113.488;2022-12-18T17:47:29;-21.40;60.78
60242;SHT30;46103;52.076;113.488;2022-12-18T17:50:33;-21.33;59.47
60242;SHT30;46103;52.076;113.488;2022-12-18T17:53:38;-21.26;58.83
60242;SHT30;46103;52.076;113.488;2022-12-18T17:56:45;-21.25;59.04
60242;SHT30;46103;52.076;113.488;2022-12-18T17:59:50;-21.22;57.88
60242;SHT30;46103;52.076;113.488;2022-12-18T18:02:56;-21.18;57.10
60242;SHT30;46103;52.076;113.488;2022-12-18T18:06:03;-21.23;56.23
60242;SHT30;46103;52.076;113.488;2022-12-18T18:09:07;-21.33;56.35
60242;SHT30;46103;52.076;113.488;2022-12-18T18:12:19;-21.39;57.09
60242;SHT30;46103;52.076;113.488;2022-12-18T18:15:41;-21.42;58.27
60242;SHT30;46103;52.076;113.488;2022-12-18T18:18:46;-21.40;58.48
60242;SHT30;46103;52.076;113.488;2022-12-18T18:21:52;-21.44;59.59
60242;SHT30;46103;52.076;113.488;2022-12-18T18:24:57;-21.42;60.75
60242;SHT30;46103;52.076;113.488;2022-12-18T18:28:03;-21.51;60.97
60242;SHT30;46103;52.076;113.488;2022-12-18T18:31:09;-21.47;61.01
60242;SHT30;46103;52.076;113.488;2022-12-18T18:34:16;-21.44;62.00
60242;SHT30;46103;52.076;113.488;2022-12-18T18:37:21;-21.49;62.24
60242;SHT30;46103;52.076;113.488;2022-12-18T18:40:24;-21.50;62.01
60242;SHT30;46103;52.076;113.488;2022-12-18T18:43:31;-21.44;60.36
60242;SHT30;46103;52.076;113.488;2022-12-18T18:46:37;-21.43;59.75
60242;SHT30;46103;52.076;113.488;2022-12-18T18:49:43;-21.49;58.41
60242;SHT30;46103;52.076;113.488;2022-12-18T18:52:49;-21.53;57.10
60242;SHT30;46103;52.076;113.488;2022-12-18T18:55:58;-21.57;56.74
60242;SHT30;46103;52.076;113.488;2022-12-18T18:59:26;-21.58;56.55
60242;SHT30;46103;52.076;113.488;2022-12-18T19:02:33;-21.58;56.34
60242;SHT30;46103;52.076;113.488;2022-12-18T19:05:39;-21.55;56.35
60242;SHT30;46103;52.076;113.488;2022-12-18T19:08:50;-21.53;56.38
60242;SHT30;46103;52.076;113.488;2022-12-18T19:11:56;-21.57;55.55
60242;SHT30;46103;52.076;113.488;2022-12-18T19:15:19;-21.55;55.40
60242;SHT30;46103;52.076;113.488;2022-12-18T19:18:25;-21.53;55.14
60242;SHT30;46103;52.076;113.488;2022-12-18T19:21:29;-21.65;54.83
60242;SHT30;46103;52.076;113.488;2022-12-18T19:24:37;-21.70;55.29
60242;SHT30;46103;52.076;113.488;2022-12-18T19:27:42;-21.79;55.42
60242;SHT30;46103;52.076;113.488;2022-12-18T19:30:46;-21.79;55.45
60242;SHT30;46103;52.076;113.488;2022-12-18T19:33:52;-21.92;55.38
60242;SHT30;46103;52.076;113.488;2022-12-18T19:36:56;-21.96;55.33
60242;SHT30;46103;52.076;113.488;2022-12-18T19:40:03;-22.01;56.81
60242;SHT30;46103;52.076;113.488;2022-12-18T19:43:15;-21.96;56.64
60242;SHT30;46103;52.076;113.488;2022-12-18T19:46:22;-21.99;56.09
60242;SHT30;46103;52.076;113.488;2022-12-18T19:49:36;-21.95;55.91
60242;SHT30;46103;52.076;113.488;2022-12-18T19:52:47;-21.95;56.33
60242;SHT30;46103;52.076;113.488;2022-12-18T19:55:51;-21.98;56.78
60242;SHT30;46103;52.076;113.488;2022-12-18T19:58:56;-22.02;57.51
60242;SHT30;46103;52.076;113.488;2022-12-18T20:02:07;-21.99;56.57
60242;SHT30;46103;52.076;113.488;2022-12-18T20:05:14;-21.99;56.11
60242;SHT30;46103;52.076;113.488;2022-12-18T20:08:23;-21.96;56.10